Time;durP1;ratioP1;P1;durP2;ratioP2;P2;SDS_P1;SDS_P2;PMS_P1;PMS_P2;Temp;Humidity;BMP_temperature;BMP_pressure;BME280_temperature;BME280_humidity;BME280_pressure;Samples;Min_cycle;Max_cycle;Signal;HPM_P1;HPM_P2
2021/12/01 00:02:22;;;;;;;6.88;5.55;;;;;;;9.02;100.00;100090.53;6248021;23;20378;-59
2021/12/01 00:04:47;;;;;;;8.00;5.78;;;;;;;8.98;100.00;100075.84;6248724;23;20042;-59
2021/12/01 00:07:12;;;;;;;6.68;5.85;;;;;;;9.05;100.00;100076.56;6248396;23;20294;-61
2021/12/01 00:09:38;;;;;;;7.78;5.97;;;;;;;9.03;100.00;100067.91;6248189;22;20004;-59
2021/12/01 00:12:03;;;;;;;8.95;5.97;;;;;;;8.95;100.00;100064.59;6248041;22;20008;-59
2021/12/01 00:14:28;;;;;;;6.10;4.53;;;;;;;9.14;100.00;100063.34;6248355;23;20302;-59
2021/12/01 00:16:54;;;;;;;6.95;5.28;;;;;;;9.06;100.00;100054.81;6247957;22;20413;-60
2021/12/01 00:19:19;;;;;;;6.20;5.03;;;;;;;9.01;100.00;100054.03;6248096;22;20012;-58
2021/12/01 00:21:44;;;;;;;8.73;5.53;;;;;;;8.97;100.00;100036.72;6247310;23;20004;-57
2021/12/01 00:24:10;;;;;;;7.25;5.22;;;;;;;8.96;100.00;100029.78;6247761;23;20008;-58
2021/12/01 00:26:35;;;;;;;8.35;5.60;;;;;;;9.01;100.00;100022.72;6247670;22;20065;-57
2021/12/01 00:29:00;;;;;;;6.50;4.90;;;;;;;8.91;100.00;100008.16;6247540;22;20004;-58
2021/12/01 00:31:26;;;;;;;6.70;4.85;;;;;;;8.91;100.00;99988.13;6247848;23;20036;-58
2021/12/01 00:33:51;;;;;;;4.95;4.00;;;;;;;9.00;100.00;99987.09;6247553;23;20008;-58
2021/12/01 00:36:17;;;;;;;2.50;1.88;;;;;;;9.20;100.00;99982.28;6247676;22;20000;-58
2021/12/01 00:38:44;;;;;;;5.30;4.80;;;;;;;8.95;100.00;99991.53;6247767;22;20130;-59
2021/12/01 00:41:10;;;;;;;8.43;5.20;;;;;;;8.97;100.00;99981.94;6247524;23;20468;-59
2021/12/01 00:43:38;;;;;;;6.78;4.93;;;;;;;8.98;100.00;99970.63;6247652;22;20001;-58
2021/12/01 00:46:20;;;;;;;6.40;5.03;;;;;;;8.94;100.00;99953.28;6248407;22;20015;-60
2021/12/01 00:48:45;;;;;;;6.22;5.00;;;;;;;9.03;100.00;99961.78;6248716;22;20074;-59
2021/12/01 00:51:11;;;;;;;8.95;5.05;;;;;;;8.87;100.00;99951.69;6247653;22;20401;-58
2021/12/01 00:53:37;;;;;;;5.47;4.32;;;;;;;9.00;100.00;99953.19;6248310;23;20071;-59
2021/12/01 00:56:03;;;;;;;6.22;4.85;;;;;;;8.91;100.00;99954.22;6247892;22;20083;-59
2021/12/01 00:58:28;;;;;;;5.93;4.15;;;;;;;8.93;100.00;99952.44;6247930;22;20073;-59
2021/12/01 01:00:55;;;;;;;8.85;5.38;;;;;;;8.94;100.00;99950.69;6247716;22;20452;-59
2021/12/01 01:03:20;;;;;;;8.05;5.65;;;;;;;8.81;100.00;99938.78;6247782;23;20320;-59
2021/12/01 01:05:45;;;;;;;6.13;4.93;;;;;;;8.91;100.00;99942.91;6248021;22;20065;-59
2021/12/01 01:08:11;;;;;;;5.90;4.00;;;;;;;8.89;100.00;99932.50;6247822;22;20290;-59
2021/12/01 01:18:42;;;;;;;7.90;4.60;;;;;;;8.94;100.00;99919.38;6247508;23;20073;-59
2021/12/01 01:21:07;;;;;;;8.60;6.00;;;;;;;8.96;100.00;99899.34;6247948;22;20015;-59
2021/12/01 01:23:35;;;;;;;9.98;6.47;;;;;;;8.84;100.00;99904.78;6247684;22;20005;-59
2021/12/01 01:26:02;;;;;;;10.07;6.95;;;;;;;8.83;100.00;99887.44;6247497;22;20021;-59
2021/12/01 01:28:27;;;;;;;10.43;8.05;;;;;;;8.71;100.00;99878.97;6248026;22;20074;-59
2021/12/01 01:30:54;;;;;;;12.07;8.00;;;;;;;8.77;100.00;99893.66;6247504;23;20011;-59
2021/12/01 01:33:20;;;;;;;11.05;8.35;;;;;;;8.76;100.00;99878.88;6248958;22;20079;-59
2021/12/01 01:35:46;;;;;;;13.52;8.43;;;;;;;8.73;100.00;99873.72;6249678;22;20062;-59
2021/12/01 01:38:11;;;;;;;10.55;7.78;;;;;;;8.78;100.00;99879.72;6249643;23;20016;-58
2021/12/01 01:40:37;;;;;;;9.13;7.60;;;;;;;8.82;100.00;99870.09;6249443;22;20297;-58
2021/12/01 01:43:03;;;;;;;8.98;8.07;;;;;;;8.87;100.00;99876.03;6249715;22;20004;-58
2021/12/01 01:45:29;;;;;;;9.82;7.95;;;;;;;8.75;100.00;99868.47;6249643;22;20014;-58
2021/12/01 01:48:05;;;;;;;10.73;8.10;;;;;;;8.81;100.00;99866.63;6249163;22;20008;-58
2021/12/01 01:50:37;;;;;;;7.53;6.47;;;;;;;8.80;100.00;99859.69;6249429;22;20008;-58
2021/12/01 01:53:14;;;;;;;11.95;8.05;;;;;;;8.70;100.00;99850.31;6249307;22;20004;-59
2021/12/01 01:55:42;;;;;;;10.30;7.20;;;;;;;8.68;100.00;99852.09;6249936;22;20004;-58
2021/12/01 01:58:08;;;;;;;9.05;7.43;;;;;;;8.64;100.00;99840.03;6249576;22;20072;-58
2021/12/01 02:00:42;;;;;;;8.40;5.35;;;;;;;8.75;100.00;99843.25;6249293;22;20377;-58
2021/12/01 02:03:11;;;;;;;10.77;7.65;;;;;;;8.58;100.00;99827.13;6249155;22;20010;-58
2021/12/01 02:05:38;;;;;;;6.80;6.03;;;;;;;8.65;100.00;99821.75;6249159;22;20014;-58
2021/12/01 02:08:03;;;;;;;7.90;6.70;;;;;;;8.64;100.00;99816.56;6249266;22;20012;-58
2021/12/01 02:10:28;;;;;;;9.35;6.78;;;;;;;8.56;100.00;99810.66;6248945;22;20057;-59
2021/12/01 02:12:54;;;;;;;6.60;5.90;;;;;;;8.76;100.00;99815.44;6249956;23;20035;-58
2021/12/01 02:15:19;;;;;;;8.60;5.32;;;;;;;8.71;100.00;99792.03;6249218;23;20090;-59
2021/12/01 02:17:44;;;;;;;7.55;5.70;;;;;;;8.67;100.00;99775.59;6248905;22;20341;-58
2021/12/01 02:20:20;;;;;;;4.97;4.45;;;;;;;8.66;100.00;99784.31;6248776;23;20087;-58
2021/12/01 02:22:46;;;;;;;7.15;5.38;;;;;;;8.50;100.00;99769.91;6249028;22;20413;-58
2021/12/01 02:25:12;;;;;;;4.85;4.35;;;;;;;8.54;100.00;99773.31;6248959;22;20031;-58
2021/12/01 02:27:37;;;;;;;5.55;4.15;;;;;;;8.61;100.00;99759.25;6248809;22;20042;-59
2021/12/01 02:30:04;;;;;;;4.70;3.03;;;;;;;8.67;100.00;99751.28;6249737;22;20029;-59
2021/12/01 02:32:29;;;;;;;7.13;4.50;;;;;;;8.61;100.00;99744.47;6249064;22;20000;-60
2021/12/01 02:34:54;;;;;;;3.38;3.08;;;;;;;8.67;100.00;99749.53;6248846;23;20397;-59
2021/12/01 02:37:21;;;;;;;3.10;2.63;;;;;;;8.57;100.00;99739.34;6248690;23;20016;-59
2021/12/01 02:39:50;;;;;;;4.60;3.38;;;;;;;8.55;100.00;99728.97;6248698;22;20015;-59
2021/12/01 02:42:18;;;;;;;4.55;3.17;;;;;;;8.57;100.00;99728.94;6249045;22;20018;-59
2021/12/01 02:44:43;;;;;;;6.13;2.88;;;;;;;8.58;100.00;99726.28;6248552;22;20365;-59
2021/12/01 02:47:09;;;;;;;5.03;3.53;;;;;;;8.60;100.00;99708.84;6248784;22;20015;-60
2021/12/01 02:49:34;;;;;;;3.50;3.20;;;;;;;8.48;100.00;99693.50;6248869;22;20289;-59
2021/12/01 02:52:00;;;;;;;6.13;3.60;;;;;;;8.48;100.00;99703.94;6248710;22;20262;-59
2021/12/01 02:54:26;;;;;;;4.47;3.60;;;;;;;8.46;100.00;99705.72;6249112;22;20015;-59
2021/12/01 02:56:53;;;;;;;4.28;3.88;;;;;;;8.56;100.00;99691.56;6248632;22;20014;-59
2021/12/01 02:59:20;;;;;;;6.85;4.32;;;;;;;8.41;100.00;99673.69;6248902;22;20000;-59
2021/12/01 03:01:45;;;;;;;4.95;4.45;;;;;;;8.19;100.00;99656.78;6248720;22;20008;-60
2021/12/01 03:04:12;;;;;;;6.93;4.13;;;;;;;8.33;100.00;99672.97;6248520;22;20046;-59
2021/12/01 03:06:39;;;;;;;4.93;3.80;;;;;;;8.47;100.00;99670.06;6248774;22;20008;-59
2021/12/01 03:09:06;;;;;;;6.72;4.35;;;;;;;8.40;100.00;99653.72;6248692;22;20007;-59
2021/12/01 03:11:32;;;;;;;6.45;4.70;;;;;;;8.43;100.00;99648.44;6248634;22;20031;-59
2021/12/01 03:13:57;;;;;;;5.05;4.18;;;;;;;8.45;100.00;99658.81;6248277;22;20408;-59
2021/12/01 03:16:23;;;;;;;4.93;3.55;;;;;;;8.41;100.00;99657.19;6248395;22;20084;-59
2021/12/01 03:18:49;;;;;;;5.72;4.55;;;;;;;8.40;100.00;99634.59;6248629;22;20389;-59
2021/12/01 03:21:15;;;;;;;5.55;4.20;;;;;;;8.32;100.00;99647.81;6248545;22;20393;-59
2021/12/01 03:23:41;;;;;;;7.30;4.95;;;;;;;8.26;100.00;99634.91;6248467;22;20047;-60
2021/12/01 03:26:07;;;;;;;6.10;4.65;;;;;;;8.39;100.00;99625.94;6248796;22;20058;-59
2021/12/01 03:28:33;;;;;;;7.00;4.78;;;;;;;8.25;100.00;99628.84;6248531;22;20047;-59
2021/12/01 03:30:58;;;;;;;9.43;4.70;;;;;;;8.33;100.00;99610.44;6248308;22;20015;-60
2021/12/01 03:33:25;;;;;;;5.15;4.35;;;;;;;8.38;100.00;99608.56;6249016;23;20062;-59
2021/12/01 03:35:52;;;;;;;8.18;4.82;;;;;;;8.33;100.00;99611.28;6248376;22;20027;-59
2021/12/01 03:38:20;;;;;;;5.30;4.20;;;;;;;8.31;100.00;99604.38;6248096;22;20039;-59
2021/12/01 03:40:45;;;;;;;5.25;3.92;;;;;;;8.38;100.00;99596.41;6248455;22;20305;-59
2021/12/01 03:43:11;;;;;;;4.50;3.60;;;;;;;8.36;100.00;99572.13;6248024;22;20019;-60
2021/12/01 03:45:36;;;;;;;7.00;4.25;;;;;;;8.35;100.00;99580.81;6248576;22;20011;-60
2021/12/01 03:48:02;;;;;;;7.25;4.35;;;;;;;8.32;100.00;99582.66;6248294;22;20008;-60
2021/12/01 03:50:27;;;;;;;5.82;4.72;;;;;;;8.17;100.00;99580.38;6248529;22;20020;-60
2021/12/01 03:52:53;;;;;;;6.75;3.72;;;;;;;8.36;100.00;99563.44;6247948;22;20058;-59
2021/12/01 03:55:18;;;;;;;5.97;4.30;;;;;;;8.26;100.00;99564.53;6247703;22;20004;-58
2021/12/01 03:57:44;;;;;;;5.50;3.65;;;;;;;8.33;100.00;99538.31;6248040;23;20083;-59
2021/12/01 04:00:12;;;;;;;6.35;5.22;;;;;;;8.20;100.00;99530.81;6247844;22;20027;-59
2021/12/01 04:02:37;;;;;;;6.20;5.25;;;;;;;8.22;100.00;99519.44;6247743;22;20345;-59
2021/12/01 04:05:03;;;;;;;7.72;5.13;;;;;;;8.23;100.00;99509.88;6247806;22;20015;-59
2021/12/01 04:07:29;;;;;;;6.95;5.10;;;;;;;8.25;100.00;99510.72;6248355;22;20004;-59
2021/12/01 04:09:54;;;;;;;7.10;5.82;;;;;;;8.16;100.00;99506.56;6248077;23;20014;-59
2021/12/01 04:12:19;;;;;;;7.28;4.88;;;;;;;8.10;100.00;99503.28;6247826;23;20079;-60
2021/12/01 04:14:45;;;;;;;7.43;5.70;;;;;;;7.97;100.00;99458.41;6247808;23;20373;-60
2021/12/01 04:17:10;;;;;;;7.35;4.95;;;;;;;8.08;100.00;99489.44;6248370;22;20015;-59
2021/12/01 04:19:36;;;;;;;5.70;3.97;;;;;;;8.17;100.00;99484.81;6247787;22;20054;-58
2021/12/01 04:22:02;;;;;;;6.50;4.30;;;;;;;8.20;100.00;99481.28;6248111;22;20079;-59
2021/12/01 04:24:28;;;;;;;5.85;3.72;;;;;;;8.10;100.00;99483.28;6248290;22;20046;-59
2021/12/01 04:26:54;;;;;;;5.75;4.00;;;;;;;8.04;100.00;99470.41;6247955;22;20389;-59
2021/12/01 04:29:19;;;;;;;4.82;3.80;;;;;;;8.08;100.00;99458.16;6247897;22;20390;-59
2021/12/01 04:31:44;;;;;;;4.05;3.58;;;;;;;8.04;100.00;99462.59;6247948;23;20004;-59
2021/12/01 04:34:10;;;;;;;4.88;3.53;;;;;;;8.17;100.00;99452.69;6247892;22;20401;-59
2021/12/01 04:36:38;;;;;;;5.20;3.67;;;;;;;8.03;100.00;99442.66;6247759;22;20397;-60
2021/12/01 04:39:08;;;;;;;5.28;3.50;;;;;;;7.98;100.00;99432.34;6247462;22;20385;-59
2021/12/01 04:41:51;;;;;;;3.78;3.33;;;;;;;8.03;100.00;99421.81;6247492;22;20074;-59
2021/12/01 04:44:16;;;;;;;4.85;3.22;;;;;;;8.12;100.00;99403.34;6247884;22;20039;-59
2021/12/01 04:46:45;;;;;;;4.60;3.10;;;;;;;8.04;100.00;99411.34;6247911;22;20074;-59
2021/12/01 04:49:13;;;;;;;4.88;3.25;;;;;;;8.10;100.00;99393.84;6247671;22;20004;-59
2021/12/01 04:51:41;;;;;;;4.80;3.28;;;;;;;8.00;100.00;99396.69;6247512;22;20027;-59
2021/12/01 04:54:06;;;;;;;3.70;2.85;;;;;;;8.09;100.00;99387.78;6247516;22;20004;-59
2021/12/01 04:56:32;;;;;;;5.15;3.25;;;;;;;8.03;100.00;99377.53;6248131;22;20043;-59
2021/12/01 04:58:57;;;;;;;3.15;2.85;;;;;;;8.00;100.00;99381.06;6247896;22;20388;-59
2021/12/01 05:01:22;;;;;;;5.55;3.63;;;;;;;7.91;100.00;99375.25;6247484;22;20004;-59
2021/12/01 05:03:48;;;;;;;3.95;3.00;;;;;;;7.98;100.00;99375.03;6247925;23;20083;-60
2021/12/01 05:06:15;;;;;;;5.40;2.92;;;;;;;7.97;100.00;99375.06;6247909;22;20008;-59
2021/12/01 05:08:41;;;;;;;5.07;3.08;;;;;;;7.73;100.00;99362.69;6249612;22;20008;-59
2021/12/01 05:11:06;;;;;;;5.60;3.35;;;;;;;7.74;100.00;99360.06;6249749;22;20018;-59
2021/12/01 05:13:32;;;;;;;4.43;3.47;;;;;;;7.78;100.00;99353.03;6249407;23;20000;-59
2021/12/01 05:15:57;;;;;;;4.18;3.17;;;;;;;7.76;100.00;99358.28;6249378;23;20086;-59
2021/12/01 05:18:22;;;;;;;5.47;2.50;;;;;;;7.85;100.00;99354.56;6250254;23;20004;-59
2021/12/01 05:20:48;;;;;;;5.05;2.70;;;;;;;7.67;100.00;99348.06;6249481;22;20008;-59
2021/12/01 05:23:15;;;;;;;3.50;2.65;;;;;;;7.75;100.00;99340.09;6249885;22;20099;-59
2021/12/01 05:25:41;;;;;;;4.05;2.90;;;;;;;7.69;100.00;99335.88;6249712;22;20011;-59
2021/12/01 05:28:06;;;;;;;4.68;2.90;;;;;;;7.58;100.00;99327.50;6249608;22;20043;-59
2021/12/01 05:30:32;;;;;;;3.53;2.80;;;;;;;7.57;100.00;99323.19;6249528;23;20004;-59
2021/12/01 05:33:04;;;;;;;3.17;2.50;;;;;;;7.57;100.00;99325.78;6249810;23;20034;-59
2021/12/01 05:35:29;;;;;;;;;;;;;;;7.83;100.00;99317.28;6249663;22;20008;-59
2021/12/01 05:37:55;;;;;;;4.20;2.30;;;;;;;7.57;100.00;99320.59;6249935;23;19922;-59
2021/12/01 05:40:20;;;;;;;3.30;2.42;;;;;;;7.54;100.00;99310.25;6249806;22;20242;-59
2021/12/01 05:42:45;;;;;;;2.65;2.15;;;;;;;7.51;100.00;99313.78;6249680;22;20096;-59
2021/12/01 05:45:11;;;;;;;3.67;2.40;;;;;;;7.42;100.00;99302.75;6249766;23;20004;-59
2021/12/01 05:47:36;;;;;;;2.60;1.95;;;;;;;7.55;100.00;99318.00;6249779;23;20001;-59
2021/12/01 05:50:01;;;;;;;3.13;2.22;;;;;;;7.44;100.00;99311.38;6249536;22;20039;-59
2021/12/01 05:52:27;;;;;;;2.25;2.05;;;;;;;7.53;100.00;99285.09;6249041;22;20023;-59
2021/12/01 05:54:52;;;;;;;2.20;2.00;;;;;;;7.57;100.00;99282.41;6249438;22;20093;-59
2021/12/01 05:57:17;;;;;;;2.58;2.03;;;;;;;7.37;100.00;99281.19;6249348;22;20305;-59
2021/12/01 05:59:43;;;;;;;2.13;1.90;;;;;;;7.55;100.00;99275.50;6249946;22;20004;-59
2021/12/01 06:02:09;;;;;;;2.80;1.88;;;;;;;7.50;100.00;99283.44;6249412;22;20010;-59
2021/12/01 06:04:34;;;;;;;3.83;2.00;;;;;;;7.46;100.00;99270.53;6249199;22;20018;-59
2021/12/01 06:06:59;;;;;;;1.67;1.58;;;;;;;7.56;100.00;99249.44;6249317;23;20089;-59
2021/12/01 06:09:25;;;;;;;2.58;1.05;;;;;;;7.60;100.00;99253.69;6249355;22;20038;-59
2021/12/01 06:11:52;;;;;;;1.70;1.60;;;;;;;7.44;100.00;99246.31;6249111;23;20015;-59
2021/12/01 06:14:18;;;;;;;3.25;1.95;;;;;;;7.41;100.00;99230.78;6249268;22;20000;-59
2021/12/01 06:16:43;;;;;;;3.15;1.80;;;;;;;7.52;100.00;99233.94;6249618;22;20078;-59
2021/12/01 06:19:09;;;;;;;1.88;1.58;;;;;;;7.60;100.00;99224.19;6248690;22;20001;-59
2021/12/01 06:21:35;;;;;;;2.92;1.67;;;;;;;7.54;100.00;99213.94;6249184;22;20011;-59
2021/12/01 06:24:00;;;;;;;2.35;1.55;;;;;;;7.47;100.00;99209.78;6249046;23;20325;-59
2021/12/01 06:26:25;;;;;;;1.38;1.27;;;;;;;7.61;100.00;99205.06;6249034;22;20047;-61
2021/12/01 06:28:51;;;;;;;2.28;1.77;;;;;;;7.48;100.00;99207.13;6248902;23;20019;-59
2021/12/01 06:31:16;;;;;;;2.67;1.60;;;;;;;7.51;100.00;99199.25;6249110;22;20394;-59
2021/12/01 06:33:42;;;;;;;2.38;1.90;;;;;;;7.54;100.00;99203.53;6249018;22;20004;-59
2021/12/01 06:36:07;;;;;;;2.45;1.67;;;;;;;7.66;100.00;99205.78;6248982;23;20397;-59
2021/12/01 06:38:32;;;;;;;4.57;1.80;;;;;;;7.55;100.00;99192.22;6249351;22;20074;-60
2021/12/01 06:40:58;;;;;;;2.33;1.50;;;;;;;7.64;100.00;99198.00;6248724;23;20012;-59
2021/12/01 06:43:23;;;;;;;2.28;1.55;;;;;;;7.56;100.00;99189.56;6249078;23;20054;-59
2021/12/01 06:45:48;;;;;;;2.85;1.60;;;;;;;7.63;100.00;99185.88;6248857;22;20011;-59
2021/12/01 06:48:14;;;;;;;2.90;1.80;;;;;;;7.58;100.00;99184.34;6249204;22;20412;-59
2021/12/01 06:50:39;;;;;;;2.42;2.00;;;;;;;7.55;100.00;99159.25;6249057;22;20348;-59
2021/12/01 06:53:05;;;;;;;2.15;1.95;;;;;;;7.58;100.00;99176.53;6248790;22;20076;-59
2021/12/01 06:55:30;;;;;;;2.78;2.03;;;;;;;7.54;100.00;99175.75;6248752;22;20035;-59
2021/12/01 06:57:55;;;;;;;2.67;2.28;;;;;;;7.62;100.00;99175.50;6249341;23;20008;-59
2021/12/01 07:00:21;;;;;;;2.40;1.95;;;;;;;7.58;100.00;99163.50;6248912;22;20028;-59
2021/12/01 07:02:46;;;;;;;3.42;2.55;;;;;;;7.67;100.00;99151.06;6248799;22;20058;-59
2021/12/01 07:05:12;;;;;;;2.05;1.60;;;;;;;7.60;100.00;99144.34;6248867;22;20030;-59
2021/12/01 07:07:38;;;;;;;3.45;2.47;;;;;;;7.61;100.00;99156.47;6248454;22;20007;-59
2021/12/01 07:10:07;;;;;;;4.32;2.72;;;;;;;7.77;100.00;99162.09;6248683;22;20027;-59
2021/12/01 07:12:32;;;;;;;3.40;2.97;;;;;;;7.70;100.00;99144.94;6248632;22;20015;-59
2021/12/01 07:14:57;;;;;;;3.67;3.20;;;;;;;7.55;100.00;99137.56;6249102;22;20008;-59
2021/12/01 07:17:23;;;;;;;5.05;3.40;;;;;;;7.60;100.00;99148.72;6248443;23;20007;-59
2021/12/01 07:19:48;;;;;;;4.28;3.70;;;;;;;7.69;100.00;99144.06;6248082;23;20024;-59
2021/12/01 07:22:14;;;;;;;3.85;3.42;;;;;;;7.64;100.00;99139.88;6248718;23;20054;-59
2021/12/01 07:24:40;;;;;;;4.93;3.83;;;;;;;7.64;100.00;99132.94;6248422;22;20004;-59
2021/12/01 07:27:06;;;;;;;4.75;3.97;;;;;;;7.72;100.00;99139.69;6248322;22;20004;-60
2021/12/01 07:29:34;;;;;;;6.45;4.38;;;;;;;7.67;100.00;99151.06;6248170;22;20354;-59
2021/12/01 07:31:59;;;;;;;4.72;4.25;;;;;;;7.69;100.00;99148.44;6247936;22;20400;-59
2021/12/01 07:34:25;;;;;;;6.00;4.50;;;;;;;7.71;100.00;99146.63;6248252;23;20008;-60
2021/12/01 07:36:50;;;;;;;5.22;4.40;;;;;;;7.65;100.00;99144.19;6248317;23;20004;-60
2021/12/01 07:39:15;;;;;;;4.18;2.90;;;;;;;7.75;100.00;99144.81;6248336;23;20031;-59
2021/12/01 07:41:40;;;;;;;5.57;4.20;;;;;;;7.89;100.00;99147.84;6247854;23;20004;-59
2021/12/01 07:44:06;;;;;;;8.23;5.15;;;;;;;7.67;100.00;99145.00;6247702;22;20000;-59
2021/12/01 07:46:31;;;;;;;7.50;5.28;;;;;;;7.70;100.00;99144.94;6247865;22;20000;-59
2021/12/01 07:48:56;;;;;;;6.78;4.72;;;;;;;7.69;100.00;99148.44;6247596;23;20004;-59
2021/12/01 07:51:22;;;;;;;6.80;4.80;;;;;;;7.72;100.00;99150.94;6248254;23;20079;-61
2021/12/01 07:53:47;;;;;;;6.30;5.40;;;;;;;7.78;100.00;99131.69;6247490;23;20310;-61
2021/12/01 07:56:13;;;;;;;7.70;5.28;;;;;;;7.78;100.00;99111.72;6248077;22;20004;-62
2021/12/01 07:58:38;;;;;;;5.93;4.82;;;;;;;7.87;100.00;99113.19;6247236;23;20008;-59
2021/12/01 08:01:03;;;;;;;3.92;3.05;;;;;;;7.92;100.00;99114.75;6248504;22;20012;-60
2021/12/01 08:03:29;;;;;;;4.75;3.63;;;;;;;7.85;100.00;99113.22;6247974;22;20072;-59
2021/12/01 08:05:54;;;;;;;5.03;3.65;;;;;;;7.79;100.00;99112.56;6248011;22;20309;-60
2021/12/01 08:08:19;;;;;;;5.00;3.80;;;;;;;7.91;100.00;99113.06;6248159;23;20270;-60
2021/12/01 08:10:46;;;;;;;6.50;3.83;;;;;;;7.84;100.00;99114.13;6248332;23;20008;-60
2021/12/01 08:13:11;;;;;;;5.10;4.13;;;;;;;7.87;100.00;99101.00;6248394;23;20091;-60
2021/12/01 08:15:36;;;;;;;5.68;4.43;;;;;;;7.83;100.00;99099.41;6247745;23;20004;-59
2021/12/01 08:18:02;;;;;;;5.90;3.90;;;;;;;7.97;100.00;99102.41;6248054;22;20011;-60
2021/12/01 08:20:27;;;;;;;6.38;5.00;;;;;;;7.92;100.00;99093.06;6247122;22;20089;-60
2021/12/01 08:22:54;;;;;;;6.85;5.13;;;;;;;7.93;100.00;99095.63;6247782;22;20027;-60
2021/12/01 08:25:20;;;;;;;7.93;4.18;;;;;;;8.03;100.00;99098.78;6247552;22;20516;-60
2021/12/01 08:27:45;;;;;;;7.70;5.05;;;;;;;8.06;100.00;99101.31;6248058;22;20008;-60
2021/12/01 08:30:11;;;;;;;6.22;5.18;;;;;;;7.99;100.00;99103.22;6248005;22;20014;-60
2021/12/01 08:32:36;;;;;;;9.13;5.47;;;;;;;7.95;100.00;99093.84;6248054;22;20035;-60
2021/12/01 08:35:02;;;;;;;5.43;4.00;;;;;;;8.00;100.00;99084.09;6248241;23;20476;-60
2021/12/01 08:37:28;;;;;;;9.20;5.35;;;;;;;7.97;100.00;99092.00;6247432;22;20425;-60
2021/12/01 08:39:53;;;;;;;5.50;4.03;;;;;;;8.09;100.00;99075.16;6247677;23;20011;-60
2021/12/01 08:42:21;;;;;;;6.03;4.32;;;;;;;8.16;100.00;99081.00;6248330;23;20036;-60
2021/12/01 08:44:48;;;;;;;5.32;4.22;;;;;;;8.10;100.00;99079.47;6250025;22;20301;-60
2021/12/01 08:47:15;;;;;;;5.38;3.88;;;;;;;8.13;100.00;99065.50;6250077;22;20004;-60
2021/12/01 08:49:41;;;;;;;5.68;4.00;;;;;;;8.29;100.00;99082.34;6250287;22;20297;-60
2021/12/01 08:52:07;;;;;;;5.35;4.13;;;;;;;8.30;100.00;99068.41;6250097;22;20063;-60
2021/12/01 08:54:32;;;;;;;4.10;3.70;;;;;;;8.37;100.00;99070.78;6249767;22;20012;-60
2021/12/01 08:56:58;;;;;;;4.50;3.22;;;;;;;8.45;100.00;99054.91;6250029;22;20008;-60
2021/12/01 08:59:23;;;;;;;3.95;3.10;;;;;;;8.49;100.00;99077.34;6250624;22;20035;-60
2021/12/01 09:01:49;;;;;;;4.72;3.38;;;;;;;8.53;100.00;99071.13;6250077;22;20004;-60
2021/12/01 09:04:14;;;;;;;3.72;3.30;;;;;;;8.60;100.00;99062.22;6250080;22;20020;-60
2021/12/01 09:06:40;;;;;;;3.20;2.90;;;;;;;8.68;100.00;99065.38;6249438;23;20008;-60
2021/12/01 09:09:05;;;;;;;4.05;2.42;;;;;;;8.58;100.00;99055.34;6249793;22;20008;-60
2021/12/01 09:11:30;;;;;;;3.13;2.33;;;;;;;8.67;100.00;99081.09;6249859;23;20008;-60
2021/12/01 09:13:55;;;;;;;2.80;2.33;;;;;;;8.54;100.00;99078.03;6249807;23;20393;-60
2021/12/01 09:16:21;;;;;;;3.83;2.00;;;;;;;8.52;100.00;99064.22;6249746;23;20024;-61
2021/12/01 09:18:47;;;;;;;2.08;1.67;;;;;;;8.52;100.00;99061.59;6249787;22;20011;-60
2021/12/01 09:21:13;;;;;;;2.45;2.03;;;;;;;8.56;100.00;99059.75;6249795;22;20463;-60
2021/12/01 09:23:38;;;;;;;3.28;2.13;;;;;;;8.58;100.00;99078.81;6249511;22;20369;-60
2021/12/01 09:26:04;;;;;;;2.40;2.10;;;;;;;8.41;100.00;99071.53;6249628;22;20083;-60
2021/12/01 09:28:29;;;;;;;2.75;2.30;;;;;;;8.33;100.00;99078.75;6249710;22;20292;-60
2021/12/01 09:30:57;;;;;;;3.10;2.42;;;;;;;8.35;100.00;99077.81;6248402;23;20008;-60
2021/12/01 09:33:24;;;;;;;3.30;2.22;;;;;;;8.28;100.00;99072.81;6249263;22;20004;-60
2021/12/01 09:35:51;;;;;;;4.38;2.85;;;;;;;8.29;100.00;99095.38;6249537;22;20034;-60
2021/12/01 09:38:18;;;;;;;4.22;2.50;;;;;;;8.19;100.00;99097.41;6248977;22;20016;-60
2021/12/01 09:40:57;;;;;;;3.95;3.03;;;;;;;8.19;100.00;99120.00;6249716;23;20420;-59
2021/12/01 09:43:25;;;;;;;6.57;3.17;;;;;;;8.10;100.00;99115.09;6249806;23;20053;-59
2021/12/01 09:45:52;;;;;;;5.75;2.63;;;;;;;8.11;100.00;99114.19;6249593;22;20004;-59
2021/12/01 09:48:17;;;;;;;4.78;3.03;;;;;;;8.03;100.00;99111.81;6249216;22;20008;-60
2021/12/01 09:50:43;;;;;;;4.40;3.00;;;;;;;7.99;100.00;99115.41;6249543;22;20008;-60
2021/12/01 09:53:08;;;;;;;6.75;3.22;;;;;;;8.00;100.00;99112.75;6249654;22;20015;-60
2021/12/01 09:55:35;;;;;;;6.20;2.70;;;;;;;8.03;100.00;99104.84;6249055;22;20004;-59
2021/12/01 09:58:06;;;;;;;11.30;3.28;;;;;;;7.97;100.00;99107.63;6249470;22;20366;-59
2021/12/01 10:00:36;;;;;;;8.15;3.45;;;;;;;7.95;100.00;99111.22;6249490;22;20075;-60
2021/12/01 10:03:02;;;;;;;9.23;3.58;;;;;;;7.92;100.00;99100.88;6248763;22;20035;-60
2021/12/01 10:05:50;;;;;;;9.68;3.50;;;;;;;7.93;100.00;99110.41;6249208;22;20012;-60
2021/12/01 10:08:25;;;;;;;8.00;3.38;;;;;;;7.90;100.00;99100.94;6249261;22;20271;-60
2021/12/01 10:10:52;;;;;;;10.25;3.00;;;;;;;7.93;100.00;99100.84;6249134;22;20462;-60
2021/12/01 10:13:29;;;;;;;10.35;2.78;;;;;;;7.87;100.00;99093.19;6249176;22;20008;-60
2021/12/01 10:15:57;;;;;;;11.20;2.67;;;;;;;7.97;100.00;99110.25;6249010;22;20110;-60
2021/12/01 10:18:25;;;;;;;11.77;2.88;;;;;;;7.96;100.00;99105.97;6249237;22;20003;-60
2021/12/01 10:21:09;;;;;;;7.78;2.47;;;;;;;7.96;100.00;99100.75;6244659;22;20415;-61
2021/12/01 10:23:37;;;;;;;12.63;3.17;;;;;;;7.89;100.00;99094.00;6248853;22;20004;-60
2021/12/01 10:26:07;;;;;;;12.27;2.20;;;;;;;7.79;100.00;99087.38;6248963;22;20008;-61
2021/12/01 10:28:36;;;;;;;8.05;2.50;;;;;;;7.90;100.00;99103.53;6249456;22;20004;-61
2021/12/01 10:31:01;;;;;;;13.50;2.33;;;;;;;7.90;100.00;99103.53;6248935;22;20023;-60
2021/12/01 10:33:29;;;;;;;11.48;1.88;;;;;;;7.89;100.00;99096.63;6249059;23;20011;-60
2021/12/01 10:35:56;;;;;;;10.05;1.83;;;;;;;8.14;100.00;99098.47;6249131;22;20070;-61
2021/12/01 10:38:32;;;;;;;7.95;2.40;;;;;;;8.14;100.00;99098.47;6249008;23;20016;-60
2021/12/01 10:41:12;;;;;;;9.77;1.77;;;;;;;8.16;100.00;99100.09;6248889;22;20023;-61
2021/12/01 10:43:47;;;;;;;12.73;1.90;;;;;;;8.13;100.00;99092.41;6248489;22;20421;-61
2021/12/01 10:46:16;;;;;;;8.85;1.75;;;;;;;8.15;100.00;99092.34;6249473;22;20057;-61
2021/12/01 10:48:43;;;;;;;10.38;1.63;;;;;;;8.20;100.00;99090.44;6249186;22;20186;-60
2021/12/01 10:51:11;;;;;;;8.27;1.33;;;;;;;8.24;100.00;99089.44;6248444;23;20474;-61
2021/12/01 10:53:37;;;;;;;7.15;1.40;;;;;;;8.27;100.00;99087.59;6248963;22;20054;-61
2021/12/01 10:56:05;;;;;;;11.23;1.52;;;;;;;8.29;100.00;99083.19;6248875;22;20003;-61
2021/12/01 10:58:36;;;;;;;5.93;1.45;;;;;;;8.38;100.00;99079.47;6248830;22;20015;-61
2021/12/01 11:01:03;;;;;;;7.80;1.10;;;;;;;8.45;100.00;99080.97;6249102;22;20004;-60
2021/12/01 11:03:31;;;;;;;4.95;1.33;;;;;;;8.54;100.00;99082.41;6248497;22;20401;-61
2021/12/01 11:06:08;;;;;;;10.10;1.25;;;;;;;8.54;99.83;99074.59;6247838;22;20404;-61
2021/12/01 11:08:37;;;;;;;8.80;1.48;;;;;;;8.50;100.00;99075.59;6248683;22;20083;-61
2021/12/01 11:11:11;;;;;;;6.70;1.23;;;;;;;8.44;99.55;99094.91;6249015;22;20015;-61
2021/12/01 11:13:41;;;;;;;9.85;1.48;;;;;;;8.39;99.69;99104.63;6248655;22;20005;-61
2021/12/01 11:16:07;;;;;;;6.05;1.40;;;;;;;8.28;100.00;99091.06;6248089;22;20019;-61
2021/12/01 11:18:35;;;;;;;4.95;1.13;;;;;;;8.21;100.00;99110.38;6248420;22;20407;-61
2021/12/01 11:21:17;;;;;;;4.22;1.08;;;;;;;8.15;100.00;99114.03;6248498;22;20004;-61
2021/12/01 11:23:49;;;;;;;5.50;1.10;;;;;;;7.85;100.00;99087.19;6248830;22;20000;-61
2021/12/01 11:26:19;;;;;;;4.28;1.00;;;;;;;8.10;100.00;99110.75;6248588;22;20015;-61
2021/12/01 11:28:47;;;;;;;8.25;1.00;;;;;;;8.15;99.88;99113.19;6248348;22;20004;-61
2021/12/01 11:31:18;;;;;;;4.30;0.80;;;;;;;8.15;99.22;99115.78;6248847;22;20015;-61
2021/12/01 11:33:44;;;;;;;5.85;1.50;;;;;;;8.12;99.84;99106.34;6248699;22;20008;-61
2021/12/01 11:36:12;;;;;;;3.67;1.10;;;;;;;8.15;100.00;99115.78;6248398;22;20004;-61
2021/12/01 11:38:38;;;;;;;5.68;1.30;;;;;;;8.15;99.54;99102.75;6247861;22;20087;-61